sensor_id;sensor_type;location;lat;lon;timestamp;P1;durP1;ratioP1;P2;durP2;ratioP2
18580;SDS011;9420;50.876;7.012;2023-07-02T00:01:08;10.00;;;3.83;;
18580;SDS011;9420;50.876;7.012;2023-07-02T00:03:34;8.60;;;4.60;;
18580;SDS011;9420;50.876;7.012;2023-07-02T00:06:01;4.93;;;4.20;;
18580;SDS011;9420;50.876;7.012;2023-07-02T00:08:27;7.57;;;4.20;;
18580;SDS011;9420;50.876;7.012;2023-07-02T00:10:54;6.57;;;3.53;;
18580;SDS011;9420;50.876;7.012;2023-07-02T00:13:20;10.43;;;3.83;;
18580;SDS011;9420;50.876;7.012;2023-07-02T00:15:47;10.90;;;3.47;;
18580;SDS011;9420;50.876;7.012;2023-07-02T00:18:15;5.73;;;3.33;;
18580;SDS011;9420;50.876;7.012;2023-07-02T00:20:42;8.23;;;3.73;;
18580;SDS011;9420;50.876;7.012;2023-07-02T00:23:09;5.20;;;3.37;;
18580;SDS011;9420;50.876;7.012;2023-07-02T00:25:35;6.17;;;3.07;;
18580;SDS011;9420;50.876;7.012;2023-07-02T00:28:02;6.60;;;3.50;;
18580;SDS011;9420;50.876;7.012;2023-07-02T00:30:29;5.07;;;3.17;;
18580;SDS011;9420;50.876;7.012;2023-07-02T00:32:55;7.80;;;3.40;;
18580;SDS011;9420;50.876;7.012;2023-07-02T00:35:23;6.93;;;3.17;;
18580;SDS011;9420;50.876;7.012;2023-07-02T00:37:50;7.97;;;3.77;;
18580;SDS011;9420;50.876;7.012;2023-07-02T00:40:16;8.30;;;3.90;;
18580;SDS011;9420;50.876;7.012;2023-07-02T00:42:43;7.37;;;3.10;;
18580;SDS011;9420;50.876;7.012;2023-07-02T00:45:10;16.30;;;3.73;;
18580;SDS011;9420;50.876;7.012;2023-07-02T00:47:36;12.67;;;3.90;;
18580;SDS011;9420;50.876;7.012;2023-07-02T00:50:03;9.17;;;3.93;;
18580;SDS011;9420;50.876;7.012;2023-07-02T00:52:33;8.13;;;3.33;;
18580;SDS011;9420;50.876;7.012;2023-07-02T00:54:59;6.90;;;4.47;;
18580;SDS011;9420;50.876;7.012;2023-07-02T00:57:26;5.53;;;3.23;;
18580;SDS011;9420;50.876;7.012;2023-07-02T00:59:54;7.27;;;3.13;;
18580;SDS011;9420;50.876;7.012;2023-07-02T01:02:21;5.90;;;3.63;;
18580;SDS011;9420;50.876;7.012;2023-07-02T01:04:51;6.37;;;3.73;;
18580;SDS011;9420;50.876;7.012;2023-07-02T01:07:22;8.97;;;3.60;;
18580;SDS011;9420;50.876;7.012;2023-07-02T01:09:51;7.27;;;4.03;;
18580;SDS011;9420;50.876;7.012;2023-07-02T01:12:17;11.57;;;4.70;;
18580;SDS011;9420;50.876;7.012;2023-07-02T01:14:47;13.90;;;5.70;;
18580;SDS011;9420;50.876;7.012;2023-07-02T01:17:18;10.03;;;4.83;;
18580;SDS011;9420;50.876;7.012;2023-07-02T01:19:47;14.37;;;6.27;;
18580;SDS011;9420;50.876;7.012;2023-07-02T01:22:16;13.20;;;5.40;;
18580;SDS011;9420;50.876;7.012;2023-07-02T01:24:44;15.40;;;5.57;;
18580;SDS011;9420;50.876;7.012;2023-07-02T01:27:12;17.73;;;5.90;;
18580;SDS011;9420;50.876;7.012;2023-07-02T01:29:39;9.47;;;6.13;;
18580;SDS011;9420;50.876;7.012;2023-07-02T01:32:07;13.47;;;6.23;;
18580;SDS011;9420;50.876;7.012;2023-07-02T01:34:34;14.37;;;7.30;;
18580;SDS011;9420;50.876;7.012;2023-07-02T01:37:02;16.37;;;7.07;;
18580;SDS011;9420;50.876;7.012;2023-07-02T01:39:30;17.03;;;7.63;;
18580;SDS011;9420;50.876;7.012;2023-07-02T01:42:06;17.53;;;7.23;;
18580;SDS011;9420;50.876;7.012;2023-07-02T01:44:34;17.73;;;8.63;;
18580;SDS011;9420;50.876;7.012;2023-07-02T01:47:01;15.67;;;7.67;;
18580;SDS011;9420;50.876;7.012;2023-07-02T01:49:29;18.07;;;9.23;;
18580;SDS011;9420;50.876;7.012;2023-07-02T01:51:56;23.07;;;7.60;;
18580;SDS011;9420;50.876;7.012;2023-07-02T01:54:25;18.13;;;7.87;;
18580;SDS011;9420;50.876;7.012;2023-07-02T01:56:53;17.60;;;8.30;;
18580;SDS011;9420;50.876;7.012;2023-07-02T01:59:20;15.37;;;8.77;;
18580;SDS011;9420;50.876;7.012;2023-07-02T02:01:47;18.63;;;9.37;;
18580;SDS011;9420;50.876;7.012;2023-07-02T02:04:13;21.83;;;9.63;;
18580;SDS011;9420;50.876;7.012;2023-07-02T02:06:42;15.60;;;9.27;;
18580;SDS011;9420;50.876;7.012;2023-07-02T02:09:09;19.03;;;8.63;;
18580;SDS011;9420;50.876;7.012;2023-07-02T02:11:38;18.17;;;8.50;;
18580;SDS011;9420;50.876;7.012;2023-07-02T02:14:05;19.27;;;10.23;;
18580;SDS011;9420;50.876;7.012;2023-07-02T02:16:32;21.57;;;9.87;;
18580;SDS011;9420;50.876;7.012;2023-07-02T02:18:59;18.27;;;9.20;;
18580;SDS011;9420;50.876;7.012;2023-07-02T02:21:26;22.93;;;10.03;;
18580;SDS011;9420;50.876;7.012;2023-07-02T02:23:53;19.07;;;10.07;;
18580;SDS011;9420;50.876;7.012;2023-07-02T02:26:20;20.90;;;9.67;;
18580;SDS011;9420;50.876;7.012;2023-07-02T02:28:49;20.13;;;10.57;;
18580;SDS011;9420;50.876;7.012;2023-07-02T02:31:16;23.43;;;9.73;;
18580;SDS011;9420;50.876;7.012;2023-07-02T02:33:43;19.67;;;10.73;;
18580;SDS011;9420;50.876;7.012;2023-07-02T02:36:10;30.53;;;12.80;;
18580;SDS011;9420;50.876;7.012;2023-07-02T02:38:36;21.33;;;10.27;;
18580;SDS011;9420;50.876;7.012;2023-07-02T02:41:03;25.70;;;9.77;;
18580;SDS011;9420;50.876;7.012;2023-07-02T02:43:33;19.07;;;10.37;;
18580;SDS011;9420;50.876;7.012;2023-07-02T02:46:01;19.77;;;10.80;;
18580;SDS011;9420;50.876;7.012;2023-07-02T02:48:27;20.90;;;11.13;;
18580;SDS011;9420;50.876;7.012;2023-07-02T02:50:54;25.43;;;12.23;;
18580;SDS011;9420;50.876;7.012;2023-07-02T02:53:20;19.97;;;10.20;;
18580;SDS011;9420;50.876;7.012;2023-07-02T02:55:47;27.40;;;11.57;;
18580;SDS011;9420;50.876;7.012;2023-07-02T02:58:14;17.87;;;10.67;;
18580;SDS011;9420;50.876;7.012;2023-07-02T03:00:40;21.20;;;11.80;;
18580;SDS011;9420;50.876;7.012;2023-07-02T03:03:11;20.43;;;10.30;;
18580;SDS011;9420;50.876;7.012;2023-07-02T03:05:38;17.07;;;10.53;;
18580;SDS011;9420;50.876;7.012;2023-07-02T03:08:05;18.03;;;10.13;;
18580;SDS011;9420;50.876;7.012;2023-07-02T03:10:32;20.57;;;10.33;;
18580;SDS011;9420;50.876;7.012;2023-07-02T03:12:58;29.93;;;12.37;;
18580;SDS011;9420;50.876;7.012;2023-07-02T03:15:25;19.37;;;11.47;;
18580;SDS011;9420;50.876;7.012;2023-07-02T03:17:51;25.73;;;11.70;;
18580;SDS011;9420;50.876;7.012;2023-07-02T03:20:19;19.27;;;10.47;;
18580;SDS011;9420;50.876;7.012;2023-07-02T03:22:46;19.77;;;11.27;;
18580;SDS011;9420;50.876;7.012;2023-07-02T03:25:13;29.43;;;12.97;;
18580;SDS011;9420;50.876;7.012;2023-07-02T03:27:40;25.03;;;12.20;;
18580;SDS011;9420;50.876;7.012;2023-07-02T03:30:07;21.13;;;11.17;;
18580;SDS011;9420;50.876;7.012;2023-07-02T03:32:34;20.37;;;12.20;;
18580;SDS011;9420;50.876;7.012;2023-07-02T03:35:01;22.43;;;11.53;;
18580;SDS011;9420;50.876;7.012;2023-07-02T03:37:29;21.93;;;12.77;;
18580;SDS011;9420;50.876;7.012;2023-07-02T03:39:55;30.27;;;13.80;;
18580;SDS011;9420;50.876;7.012;2023-07-02T03:42:23;27.17;;;12.87;;
18580;SDS011;9420;50.876;7.012;2023-07-02T03:44:50;28.83;;;13.10;;
18580;SDS011;9420;50.876;7.012;2023-07-02T03:47:17;26.53;;;13.60;;
18580;SDS011;9420;50.876;7.012;2023-07-02T03:49:44;33.80;;;15.20;;
18580;SDS011;9420;50.876;7.012;2023-07-02T03:52:11;28.13;;;12.97;;
18580;SDS011;9420;50.876;7.012;2023-07-02T03:54:39;28.30;;;13.03;;
18580;SDS011;9420;50.876;7.012;2023-07-02T03:57:06;27.73;;;13.83;;
18580;SDS011;9420;50.876;7.012;2023-07-02T03:59:33;27.67;;;13.67;;
18580;SDS011;9420;50.876;7.012;2023-07-02T04:02:00;26.00;;;13.60;;
18580;SDS011;9420;50.876;7.012;2023-07-02T04:04:27;27.63;;;15.80;;
18580;SDS011;9420;50.876;7.012;2023-07-02T04:06:53;29.90;;;15.03;;
18580;SDS011;9420;50.876;7.012;2023-07-02T04:09:20;26.17;;;13.77;;
18580;SDS011;9420;50.876;7.012;2023-07-02T04:11:48;30.57;;;14.50;;
18580;SDS011;9420;50.876;7.012;2023-07-02T04:14:15;27.90;;;13.90;;
18580;SDS011;9420;50.876;7.012;2023-07-02T04:16:44;33.77;;;15.87;;
18580;SDS011;9420;50.876;7.012;2023-07-02T04:19:11;28.03;;;14.57;;
18580;SDS011;9420;50.876;7.012;2023-07-02T04:21:38;33.23;;;15.20;;
18580;SDS011;9420;50.876;7.012;2023-07-02T04:24:04;29.37;;;14.53;;
18580;SDS011;9420;50.876;7.012;2023-07-02T04:26:31;30.53;;;15.57;;
18580;SDS011;9420;50.876;7.012;2023-07-02T04:28:59;28.90;;;15.77;;
18580;SDS011;9420;50.876;7.012;2023-07-02T04:31:25;27.17;;;15.90;;
18580;SDS011;9420;50.876;7.012;2023-07-02T04:33:52;33.87;;;16.13;;
18580;SDS011;9420;50.876;7.012;2023-07-02T04:36:19;35.27;;;16.07;;
18580;SDS011;9420;50.876;7.012;2023-07-02T04:38:45;34.80;;;16.53;;
18580;SDS011;9420;50.876;7.012;2023-07-02T04:41:12;30.50;;;16.60;;
18580;SDS011;9420;50.876;7.012;2023-07-02T04:43:38;35.60;;;16.83;;
18580;SDS011;9420;50.876;7.012;2023-07-02T04:46:06;30.57;;;15.57;;
18580;SDS011;9420;50.876;7.012;2023-07-02T04:48:33;31.97;;;18.03;;
18580;SDS011;9420;50.876;7.012;2023-07-02T04:51:00;35.20;;;16.93;;
18580;SDS011;9420;50.876;7.012;2023-07-02T04:53:26;30.43;;;14.77;;
18580;SDS011;9420;50.876;7.012;2023-07-02T04:55:53;32.33;;;17.83;;
18580;SDS011;9420;50.876;7.012;2023-07-02T04:58:19;30.43;;;17.37;;
18580;SDS011;9420;50.876;7.012;2023-07-02T05:00:46;33.27;;;16.53;;
18580;SDS011;9420;50.876;7.012;2023-07-02T05:03:14;40.47;;;19.03;;
18580;SDS011;9420;50.876;7.012;2023-07-02T05:05:40;33.43;;;17.13;;
18580;SDS011;9420;50.876;7.012;2023-07-02T05:08:07;39.20;;;18.80;;
18580;SDS011;9420;50.876;7.012;2023-07-02T05:10:33;44.07;;;20.43;;
18580;SDS011;9420;50.876;7.012;2023-07-02T05:13:00;33.70;;;19.03;;
18580;SDS011;9420;50.876;7.012;2023-07-02T05:15:26;39.70;;;19.10;;
18580;SDS011;9420;50.876;7.012;2023-07-02T05:17:53;39.93;;;18.60;;
18580;SDS011;9420;50.876;7.012;2023-07-02T05:20:21;39.20;;;19.83;;
18580;SDS011;9420;50.876;7.012;2023-07-02T05:22:47;35.30;;;18.80;;
18580;SDS011;9420;50.876;7.012;2023-07-02T05:25:14;35.73;;;18.10;;
18580;SDS011;9420;50.876;7.012;2023-07-02T05:27:41;37.13;;;20.00;;
18580;SDS011;9420;50.876;7.012;2023-07-02T05:30:07;37.70;;;19.23;;
18580;SDS011;9420;50.876;7.012;2023-07-02T05:32:35;41.17;;;20.40;;
18580;SDS011;9420;50.876;7.012;2023-07-02T05:35:01;39.57;;;19.60;;
18580;SDS011;9420;50.876;7.012;2023-07-02T05:37:29;36.93;;;17.37;;
18580;SDS011;9420;50.876;7.012;2023-07-02T05:39:56;36.63;;;19.17;;
18580;SDS011;9420;50.876;7.012;2023-07-02T05:42:22;48.53;;;21.50;;
18580;SDS011;9420;50.876;7.012;2023-07-02T05:44:49;39.07;;;19.17;;
18580;SDS011;9420;50.876;7.012;2023-07-02T05:47:16;36.67;;;19.23;;
18580;SDS011;9420;50.876;7.012;2023-07-02T05:49:42;43.37;;;18.67;;
18580;SDS011;9420;50.876;7.012;2023-07-02T05:52:09;38.87;;;19.83;;
18580;SDS011;9420;50.876;7.012;2023-07-02T05:54:39;39.00;;;19.17;;
18580;SDS011;9420;50.876;7.012;2023-07-02T05:57:06;41.23;;;20.07;;
18580;SDS011;9420;50.876;7.012;2023-07-02T05:59:33;36.77;;;19.00;;
18580;SDS011;9420;50.876;7.012;2023-07-02T06:02:00;50.47;;;20.43;;
18580;SDS011;9420;50.876;7.012;2023-07-02T06:04:27;43.10;;;20.07;;
18580;SDS011;9420;50.876;7.012;2023-07-02T06:06:53;39.30;;;19.27;;
18580;SDS011;9420;50.876;7.012;2023-07-02T06:09:20;37.73;;;19.03;;
18580;SDS011;9420;50.876;7.012;2023-07-02T06:11:48;49.90;;;21.17;;
18580;SDS011;9420;50.876;7.012;2023-07-02T06:14:14;34.57;;;19.77;;
18580;SDS011;9420;50.876;7.012;2023-07-02T06:16:41;36.30;;;19.53;;
18580;SDS011;9420;50.876;7.012;2023-07-02T06:19:08;52.37;;;20.73;;
18580;SDS011;9420;50.876;7.012;2023-07-02T06:21:34;34.57;;;19.03;;
18580;SDS011;9420;50.876;7.012;2023-07-02T06:24:01;42.10;;;21.80;;
18580;SDS011;9420;50.876;7.012;2023-07-02T06:26:28;45.23;;;20.57;;
18580;SDS011;9420;50.876;7.012;2023-07-02T06:28:56;43.73;;;21.23;;
18580;SDS011;9420;50.876;7.012;2023-07-02T06:31:23;39.73;;;20.30;;
18580;SDS011;9420;50.876;7.012;2023-07-02T06:33:50;41.00;;;20.17;;
18580;SDS011;9420;50.876;7.012;2023-07-02T06:36:16;42.27;;;19.93;;
18580;SDS011;9420;50.876;7.012;2023-07-02T06:38:43;44.97;;;19.93;;
18580;SDS011;9420;50.876;7.012;2023-07-02T06:41:10;38.30;;;18.03;;
18580;SDS011;9420;50.876;7.012;2023-07-02T06:43:37;40.63;;;21.07;;
18580;SDS011;9420;50.876;7.012;2023-07-02T06:46:04;34.00;;;18.50;;
18580;SDS011;9420;50.876;7.012;2023-07-02T06:48:31;37.13;;;18.87;;
18580;SDS011;9420;50.876;7.012;2023-07-02T06:50:58;28.90;;;17.73;;
18580;SDS011;9420;50.876;7.012;2023-07-02T06:53:25;39.03;;;19.43;;
18580;SDS011;9420;50.876;7.012;2023-07-02T06:55:51;36.70;;;18.67;;
18580;SDS011;9420;50.876;7.012;2023-07-02T06:58:18;37.17;;;18.83;;
18580;SDS011;9420;50.876;7.012;2023-07-02T07:00:45;34.80;;;17.03;;
18580;SDS011;9420;50.876;7.012;2023-07-02T07:03:13;35.53;;;18.70;;
18580;SDS011;9420;50.876;7.012;2023-07-02T07:05:40;38.27;;;18.90;;
18580;SDS011;9420;50.876;7.012;2023-07-02T07:08:06;38.03;;;19.80;;
18580;SDS011;9420;50.876;7.012;2023-07-02T07:10:33;34.17;;;16.77;;
18580;SDS011;9420;50.876;7.012;2023-07-02T07:13:00;42.13;;;18.77;;
18580;SDS011;9420;50.876;7.012;2023-07-02T07:15:29;42.83;;;17.27;;
18580;SDS011;9420;50.876;7.012;2023-07-02T07:17:58;32.37;;;17.07;;
18580;SDS011;9420;50.876;7.012;2023-07-02T07:20:26;36.87;;;18.17;;
18580;SDS011;9420;50.876;7.012;2023-07-02T07:22:53;32.27;;;16.40;;
18580;SDS011;9420;50.876;7.012;2023-07-02T07:25:19;33.57;;;15.73;;
18580;SDS011;9420;50.876;7.012;2023-07-02T07:27:46;35.50;;;19.67;;
18580;SDS011;9420;50.876;7.012;2023-07-02T07:30:12;36.60;;;17.73;;
18580;SDS011;9420;50.876;7.012;2023-07-02T07:32:39;39.63;;;18.60;;
18580;SDS011;9420;50.876;7.012;2023-07-02T07:35:06;41.20;;;17.10;;
18580;SDS011;9420;50.876;7.012;2023-07-02T07:37:34;48.17;;;18.90;;
18580;SDS011;9420;50.876;7.012;2023-07-02T07:40:01;31.40;;;17.30;;
18580;SDS011;9420;50.876;7.012;2023-07-02T07:42:28;32.00;;;16.10;;
18580;SDS011;9420;50.876;7.012;2023-07-02T07:44:55;33.63;;;16.40;;
18580;SDS011;9420;50.876;7.012;2023-07-02T07:47:21;31.33;;;15.60;;
18580;SDS011;9420;50.876;7.012;2023-07-02T07:49:48;35.13;;;16.23;;
18580;SDS011;9420;50.876;7.012;2023-07-02T07:52:15;32.33;;;15.77;;
18580;SDS011;9420;50.876;7.012;2023-07-02T07:54:43;32.57;;;15.23;;
18580;SDS011;9420;50.876;7.012;2023-07-02T07:57:10;37.97;;;16.33;;
18580;SDS011;9420;50.876;7.012;2023-07-02T07:59:36;28.77;;;14.47;;
18580;SDS011;9420;50.876;7.012;2023-07-02T08:02:03;27.33;;;13.23;;
18580;SDS011;9420;50.876;7.012;2023-07-02T08:04:30;30.27;;;12.77;;
18580;SDS011;9420;50.876;7.012;2023-07-02T08:06:57;34.17;;;14.90;;
18580;SDS011;9420;50.876;7.012;2023-07-02T08:09:23;29.83;;;14.70;;
18580;SDS011;9420;50.876;7.012;2023-07-02T08:11:52;28.47;;;15.03;;
18580;SDS011;9420;50.876;7.012;2023-07-02T08:14:18;29.23;;;14.73;;
18580;SDS011;9420;50.876;7.012;2023-07-02T08:16:45;34.93;;;14.50;;
18580;SDS011;9420;50.876;7.012;2023-07-02T08:19:11;27.07;;;13.40;;
18580;SDS011;9420;50.876;7.012;2023-07-02T08:21:38;27.40;;;14.07;;
18580;SDS011;9420;50.876;7.012;2023-07-02T08:24:05;34.73;;;16.30;;
18580;SDS011;9420;50.876;7.012;2023-07-02T08:26:32;31.97;;;14.50;;
18580;SDS011;9420;50.876;7.012;2023-07-02T08:29:00;29.33;;;14.60;;
18580;SDS011;9420;50.876;7.012;2023-07-02T08:31:27;29.10;;;13.70;;
18580;SDS011;9420;50.876;7.012;2023-07-02T08:33:53;35.27;;;16.53;;
18580;SDS011;9420;50.876;7.012;2023-07-02T08:36:20;29.50;;;14.67;;
18580;SDS011;9420;50.876;7.012;2023-07-02T08:38:47;27.20;;;13.93;;
18580;SDS011;9420;50.876;7.012;2023-07-02T08:41:13;39.10;;;15.40;;
18580;SDS011;9420;50.876;7.012;2023-07-02T08:43:41;31.33;;;14.40;;
18580;SDS011;9420;50.876;7.012;2023-07-02T08:46:09;30.30;;;16.37;;
18580;SDS011;9420;50.876;7.012;2023-07-02T08:48:36;36.87;;;16.80;;
18580;SDS011;9420;50.876;7.012;2023-07-02T08:51:03;27.07;;;15.03;;
18580;SDS011;9420;50.876;7.012;2023-07-02T08:53:30;34.13;;;16.67;;
18580;SDS011;9420;50.876;7.012;2023-07-02T08:55:58;32.00;;;14.47;;
18580;SDS011;9420;50.876;7.012;2023-07-02T08:58:25;26.87;;;14.53;;
18580;SDS011;9420;50.876;7.012;2023-07-02T09:01:03;36.70;;;17.03;;
18580;SDS011;9420;50.876;7.012;2023-07-02T09:03:31;42.03;;;16.93;;
18580;SDS011;9420;50.876;7.012;2023-07-02T09:05:58;33.53;;;16.77;;
18580;SDS011;9420;50.876;7.012;2023-07-02T09:08:25;34.50;;;16.23;;
18580;SDS011;9420;50.876;7.012;2023-07-02T09:10:53;29.77;;;15.27;;
18580;SDS011;9420;50.876;7.012;2023-07-02T09:13:19;38.00;;;17.87;;
18580;SDS011;9420;50.876;7.012;2023-07-02T09:15:46;35.00;;;16.23;;
18580;SDS011;9420;50.876;7.012;2023-07-02T09:18:19;32.17;;;18.57;;
18580;SDS011;9420;50.876;7.012;2023-07-02T09:20:49;31.80;;;15.00;;
18580;SDS011;9420;50.876;7.012;2023-07-02T09:23:17;35.93;;;17.00;;
18580;SDS011;9420;50.876;7.012;2023-07-02T09:25:43;40.67;;;17.40;;
18580;SDS011;9420;50.876;7.012;2023-07-02T09:28:13;30.33;;;16.63;;
18580;SDS011;9420;50.876;7.012;2023-07-02T09:30:48;37.30;;;17.93;;
18580;SDS011;9420;50.876;7.012;2023-07-02T09:33:16;35.47;;;16.67;;
18580;SDS011;9420;50.876;7.012;2023-07-02T09:35:43;28.40;;;14.67;;
18580;SDS011;9420;50.876;7.012;2023-07-02T09:38:11;33.97;;;16.13;;
18580;SDS011;9420;50.876;7.012;2023-07-02T09:40:42;30.37;;;16.00;;
18580;SDS011;9420;50.876;7.012;2023-07-02T09:43:11;31.80;;;16.20;;
18580;SDS011;9420;50.876;7.012;2023-07-02T09:45:40;30.90;;;15.13;;
18580;SDS011;9420;50.876;7.012;2023-07-02T09:48:09;30.27;;;15.10;;
18580;SDS011;9420;50.876;7.012;2023-07-02T09:50:38;27.73;;;14.90;;
18580;SDS011;9420;50.876;7.012;2023-07-02T09:53:06;31.10;;;15.33;;
18580;SDS011;9420;50.876;7.012;2023-07-02T09:55:34;32.97;;;16.53;;
18580;SDS011;9420;50.876;7.012;2023-07-02T09:58:01;34.07;;;15.93;;
18580;SDS011;9420;50.876;7.012;2023-07-02T10:00:27;28.63;;;14.77;;
18580;SDS011;9420;50.876;7.012;2023-07-02T10:02:54;32.17;;;16.87;;
18580;SDS011;9420;50.876;7.012;2023-07-02T10:05:27;31.97;;;15.60;;
18580;SDS011;9420;50.876;7.012;2023-07-02T10:07:55;29.90;;;15.03;;
18580;SDS011;9420;50.876;7.012;2023-07-02T10:10:26;30.27;;;15.50;;
18580;SDS011;9420;50.876;7.012;2023-07-02T10:12:58;34.67;;;15.70;;
18580;SDS011;9420;50.876;7.012;2023-07-02T10:15:25;31.27;;;15.40;;
18580;SDS011;9420;50.876;7.012;2023-07-02T10:17:55;30.60;;;15.50;;
18580;SDS011;9420;50.876;7.012;2023-07-02T10:20:31;35.30;;;17.27;;
18580;SDS011;9420;50.876;7.012;2023-07-02T10:22:59;27.33;;;14.60;;
18580;SDS011;9420;50.876;7.012;2023-07-02T10:25:27;29.57;;;15.63;;
18580;SDS011;9420;50.876;7.012;2023-07-02T10:27:54;31.13;;;15.03;;
18580;SDS011;9420;50.876;7.012;2023-07-02T10:30:31;30.03;;;15.13;;
18580;SDS011;9420;50.876;7.012;2023-07-02T10:33:09;33.33;;;16.13;;
18580;SDS011;9420;50.876;7.012;2023-07-02T10:35:36;29.97;;;14.67;;
18580;SDS011;9420;50.876;7.012;2023-07-02T10:38:03;26.20;;;14.03;;
18580;SDS011;9420;50.876;7.012;2023-07-02T10:40:31;22.80;;;12.10;;
18580;SDS011;9420;50.876;7.012;2023-07-02T10:42:58;25.97;;;13.70;;
18580;SDS011;9420;50.876;7.012;2023-07-02T10:45:33;25.47;;;14.30;;
18580;SDS011;9420;50.876;7.012;2023-07-02T10:48:01;23.40;;;13.53;;
18580;SDS011;9420;50.876;7.012;2023-07-02T10:50:29;27.50;;;13.10;;
18580;SDS011;9420;50.876;7.012;2023-07-02T10:52:57;25.97;;;12.67;;
18580;SDS011;9420;50.876;7.012;2023-07-02T10:55:24;24.37;;;13.70;;
18580;SDS011;9420;50.876;7.012;2023-07-02T10:58:02;22.40;;;12.30;;
18580;SDS011;9420;50.876;7.012;2023-07-02T11:00:29;26.80;;;13.00;;
18580;SDS011;9420;50.876;7.012;2023-07-02T11:02:59;25.93;;;13.23;;
18580;SDS011;9420;50.876;7.012;2023-07-02T11:05:26;24.13;;;12.33;;
18580;SDS011;9420;50.876;7.012;2023-07-02T11:07:53;22.67;;;12.87;;
18580;SDS011;9420;50.876;7.012;2023-07-02T11:10:22;26.00;;;14.37;;
18580;SDS011;9420;50.876;7.012;2023-07-02T11:12:49;27.33;;;13.07;;
18580;SDS011;9420;50.876;7.012;2023-07-02T11:15:16;26.80;;;12.73;;
18580;SDS011;9420;50.876;7.012;2023-07-02T11:17:43;26.73;;;12.83;;
18580;SDS011;9420;50.876;7.012;2023-07-02T11:20:12;29.87;;;14.10;;
18580;SDS011;9420;50.876;7.012;2023-07-02T11:22:39;28.37;;;14.37;;
18580;SDS011;9420;50.876;7.012;2023-07-02T11:25:13;22.03;;;13.30;;
18580;SDS011;9420;50.876;7.012;2023-07-02T11:27:42;29.60;;;13.53;;
18580;SDS011;9420;50.876;7.012;2023-07-02T11:30:09;32.00;;;14.60;;
18580;SDS011;9420;50.876;7.012;2023-07-02T11:32:46;25.23;;;13.50;;
18580;SDS011;9420;50.876;7.012;2023-07-02T11:35:18;30.27;;;13.97;;
18580;SDS011;9420;50.876;7.012;2023-07-02T11:37:46;25.37;;;13.60;;
18580;SDS011;9420;50.876;7.012;2023-07-02T11:40:14;28.07;;;13.70;;
18580;SDS011;9420;50.876;7.012;2023-07-02T11:42:43;33.87;;;13.80;;
18580;SDS011;9420;50.876;7.012;2023-07-02T11:45:10;25.87;;;14.63;;
18580;SDS011;9420;50.876;7.012;2023-07-02T11:47:37;30.50;;;15.73;;
18580;SDS011;9420;50.876;7.012;2023-07-02T11:50:05;34.17;;;13.70;;
18580;SDS011;9420;50.876;7.012;2023-07-02T11:52:33;29.77;;;13.63;;
18580;SDS011;9420;50.876;7.012;2023-07-02T11:54:59;22.63;;;11.90;;
18580;SDS011;9420;50.876;7.012;2023-07-02T11:57:26;25.43;;;12.73;;
18580;SDS011;9420;50.876;7.012;2023-07-02T11:59:52;22.07;;;11.97;;
18580;SDS011;9420;50.876;7.012;2023-07-02T12:02:19;21.83;;;11.93;;
18580;SDS011;9420;50.876;7.012;2023-07-02T12:04:46;25.00;;;11.77;;
18580;SDS011;9420;50.876;7.012;2023-07-02T12:07:12;26.23;;;12.13;;
18580;SDS011;9420;50.876;7.012;2023-07-02T12:09:43;24.47;;;11.40;;
18580;SDS011;9420;50.876;7.012;2023-07-02T12:12:10;19.43;;;11.53;;
18580;SDS011;9420;50.876;7.012;2023-07-02T12:14:37;18.47;;;11.13;;
18580;SDS011;9420;50.876;7.012;2023-07-02T12:17:06;23.63;;;11.00;;
18580;SDS011;9420;50.876;7.012;2023-07-02T12:19:33;27.20;;;11.73;;
18580;SDS011;9420;50.876;7.012;2023-07-02T12:22:00;23.80;;;11.27;;
18580;SDS011;9420;50.876;7.012;2023-07-02T12:24:26;27.47;;;12.10;;
18580;SDS011;9420;50.876;7.012;2023-07-02T12:26:54;21.57;;;10.43;;
18580;SDS011;9420;50.876;7.012;2023-07-02T12:29:21;23.20;;;10.93;;
18580;SDS011;9420;50.876;7.012;2023-07-02T12:31:47;23.73;;;12.27;;
18580;SDS011;9420;50.876;7.012;2023-07-02T12:34:14;23.63;;;11.03;;
18580;SDS011;9420;50.876;7.012;2023-07-02T12:36:41;25.97;;;10.93;;
18580;SDS011;9420;50.876;7.012;2023-07-02T12:39:08;24.90;;;10.37;;
18580;SDS011;9420;50.876;7.012;2023-07-02T12:41:34;23.43;;;11.57;;
18580;SDS011;9420;50.876;7.012;2023-07-02T12:44:02;26.20;;;12.60;;
18580;SDS011;9420;50.876;7.012;2023-07-02T12:46:29;22.40;;;11.40;;
18580;SDS011;9420;50.876;7.012;2023-07-02T12:48:55;25.60;;;11.53;;
18580;SDS011;9420;50.876;7.012;2023-07-02T12:51:22;22.23;;;11.17;;
18580;SDS011;9420;50.876;7.012;2023-07-02T12:53:49;22.17;;;12.17;;
18580;SDS011;9420;50.876;7.012;2023-07-02T12:56:15;26.17;;;11.53;;
18580;SDS011;9420;50.876;7.012;2023-07-02T12:58:42;22.50;;;9.37;;
18580;SDS011;9420;50.876;7.012;2023-07-02T13:01:10;21.60;;;9.87;;
18580;SDS011;9420;50.876;7.012;2023-07-02T13:03:37;18.87;;;10.30;;
18580;SDS011;9420;50.876;7.012;2023-07-02T13:06:04;26.10;;;10.97;;
18580;SDS011;9420;50.876;7.012;2023-07-02T13:08:30;23.27;;;11.20;;
18580;SDS011;9420;50.876;7.012;2023-07-02T13:10:57;20.80;;;11.60;;
18580;SDS011;9420;50.876;7.012;2023-07-02T13:13:24;21.70;;;12.97;;
18580;SDS011;9420;50.876;7.012;2023-07-02T13:15:50;22.60;;;11.63;;
18580;SDS011;9420;50.876;7.012;2023-07-02T13:18:18;24.83;;;11.37;;
18580;SDS011;9420;50.876;7.012;2023-07-02T13:20:45;18.07;;;10.80;;
18580;SDS011;9420;50.876;7.012;2023-07-02T13:23:11;22.87;;;11.43;;
18580;SDS011;9420;50.876;7.012;2023-07-02T13:25:38;21.20;;;10.55;;
18580;SDS011;9420;50.876;7.012;2023-07-02T13:28:04;18.73;;;11.20;;
18580;SDS011;9420;50.876;7.012;2023-07-02T13:30:31;21.38;;;10.15;;
18580;SDS011;9420;50.876;7.012;2023-07-02T13:32:57;21.88;;;11.07;;
18580;SDS011;9420;50.876;7.012;2023-07-02T13:35:25;20.40;;;10.87;;
18580;SDS011;9420;50.876;7.012;2023-07-02T13:37:52;20.57;;;10.83;;
18580;SDS011;9420;50.876;7.012;2023-07-02T13:40:19;19.43;;;11.63;;
18580;SDS011;9420;50.876;7.012;2023-07-02T13:42:45;26.87;;;11.10;;
18580;SDS011;9420;50.876;7.012;2023-07-02T13:45:12;29.13;;;12.33;;
18580;SDS011;9420;50.876;7.012;2023-07-02T13:47:38;22.50;;;11.97;;
18580;SDS011;9420;50.876;7.012;2023-07-02T13:50:05;22.40;;;10.73;;
18580;SDS011;9420;50.876;7.012;2023-07-02T13:52:34;22.27;;;11.50;;
18580;SDS011;9420;50.876;7.012;2023-07-02T13:55:00;21.77;;;11.73;;
18580;SDS011;9420;50.876;7.012;2023-07-02T13:57:27;21.17;;;11.70;;
18580;SDS011;9420;50.876;7.012;2023-07-02T13:59:55;21.70;;;10.90;;
18580;SDS011;9420;50.876;7.012;2023-07-02T14:02:22;21.73;;;11.48;;
18580;SDS011;9420;50.876;7.012;2023-07-02T14:04:48;24.77;;;11.50;;
18580;SDS011;9420;50.876;7.012;2023-07-02T14:07:15;22.25;;;11.98;;
18580;SDS011;9420;50.876;7.012;2023-07-02T14:09:42;21.13;;;10.63;;
18580;SDS011;9420;50.876;7.012;2023-07-02T14:12:10;22.42;;;11.93;;
18580;SDS011;9420;50.876;7.012;2023-07-02T14:14:37;25.73;;;11.20;;
18580;SDS011;9420;50.876;7.012;2023-07-02T14:17:05;18.67;;;10.87;;
18580;SDS011;9420;50.876;7.012;2023-07-02T14:19:32;22.43;;;11.50;;
18580;SDS011;9420;50.876;7.012;2023-07-02T14:21:59;19.93;;;10.17;;
18580;SDS011;9420;50.876;7.012;2023-07-02T14:24:25;22.30;;;10.73;;
18580;SDS011;9420;50.876;7.012;2023-07-02T14:26:52;22.73;;;10.77;;
18580;SDS011;9420;50.876;7.012;2023-07-02T14:29:18;23.67;;;11.20;;
18580;SDS011;9420;50.876;7.012;2023-07-02T14:31:45;23.75;;;10.32;;
18580;SDS011;9420;50.876;7.012;2023-07-02T14:34:13;20.77;;;10.80;;
18580;SDS011;9420;50.876;7.012;2023-07-02T14:36:40;20.67;;;11.02;;
18580;SDS011;9420;50.876;7.012;2023-07-02T14:39:06;22.35;;;11.52;;